createdAt,value
2018-04-27T00:00:47.853Z,10.70
2018-04-27T00:03:15.509Z,9.67
2018-04-27T00:05:43.256Z,9.93
2018-04-27T00:08:11.064Z,8.57
2018-04-27T00:10:38.905Z,11.40
2018-04-27T00:13:06.492Z,10.53
2018-04-27T00:15:34.586Z,9.47
2018-04-27T00:18:02.208Z,11.53
2018-04-27T00:20:30.628Z,11.60
2018-04-27T00:22:58.167Z,8.87
2018-04-27T00:25:26.516Z,12.47
2018-04-27T00:27:54.292Z,10.93
2018-04-27T00:30:21.831Z,8.87
2018-04-27T00:32:49.417Z,11.10
2018-04-27T00:35:17.104Z,13.13
2018-04-27T00:37:44.808Z,15.90
2018-04-27T00:40:12.516Z,13.40
2018-04-27T00:42:40.964Z,12.70
2018-04-27T00:45:08.813Z,15.37
2018-04-27T00:47:36.516Z,15.63
2018-04-27T00:50:05.095Z,12.77
2018-04-27T00:52:44.364Z,16.53
2018-04-27T00:55:12.140Z,12.13
2018-04-27T00:57:39.680Z,7.63
2018-04-27T01:00:07.260Z,8.23
2018-04-27T01:02:35.145Z,8.50
2018-04-27T01:05:03.106Z,6.90
2018-04-27T01:07:31.262Z,8.80
2018-04-27T01:09:58.945Z,10.67
2018-04-27T01:12:26.640Z,9.30
2018-04-27T01:14:55.489Z,8.00
2018-04-27T01:17:23.360Z,7.03
2018-04-27T01:19:51.628Z,9.23
2018-04-27T01:22:19.532Z,7.67
2018-04-27T01:24:48.037Z,11.33
2018-04-27T01:27:15.784Z,11.13
2018-04-27T01:29:43.820Z,12.03
2018-04-27T01:32:11.381Z,7.60
2018-04-27T01:34:39.129Z,9.80
2018-04-27T01:37:06.952Z,16.00
2018-04-27T01:39:34.710Z,12.03
2018-04-27T01:42:03.550Z,9.67
2018-04-27T01:44:31.382Z,8.97
2018-04-27T01:46:59.089Z,9.50
2018-04-27T01:49:26.715Z,17.83
2018-04-27T01:51:54.480Z,12.60
2018-04-27T01:54:22.165Z,14.53
2018-04-27T01:56:49.813Z,9.03
2018-04-27T01:59:17.696Z,13.40
2018-04-27T02:01:45.531Z,11.33
2018-04-27T02:04:13.218Z,10.80
2018-04-27T02:06:41.112Z,10.67
2018-04-27T02:09:09.611Z,11.73
2018-04-27T02:11:37.376Z,11.80
2018-04-27T02:14:05.331Z,9.77
2018-04-27T02:16:33.636Z,12.80
2018-04-27T02:19:01.250Z,7.47
2018-04-27T02:21:29.292Z,9.37
2018-04-27T02:23:56.841Z,9.30
2018-04-27T02:26:24.673Z,10.10
2018-04-27T02:28:52.372Z,10.43
2018-04-27T02:31:20.097Z,10.50
2018-04-27T02:33:48.045Z,14.87
2018-04-27T02:36:16.786Z,13.73
2018-04-27T02:38:44.328Z,11.27
2018-04-27T02:41:11.958Z,10.37
2018-04-27T02:43:39.572Z,13.93
2018-04-27T02:46:07.375Z,10.10
2018-04-27T02:48:36.413Z,14.40
2018-04-27T02:51:04.245Z,16.90
2018-04-27T02:53:31.992Z,9.87
2018-04-27T02:56:00.421Z,13.23
2018-04-27T02:58:28.368Z,11.80
2018-04-27T03:00:55.909Z,13.27
2018-04-27T03:03:23.456Z,9.97
2018-04-27T03:05:52.504Z,14.53
2018-04-27T03:08:20.418Z,11.97
2018-04-27T03:10:49.199Z,13.50
2018-04-27T03:13:16.802Z,13.23
2018-04-27T03:15:44.356Z,12.80
2018-04-27T03:18:12.037Z,15.10
2018-04-27T03:20:39.993Z,16.97
2018-04-27T03:23:07.780Z,17.17
2018-04-27T03:25:35.687Z,12.67
2018-04-27T03:28:04.435Z,12.97
2018-04-27T03:30:32.544Z,13.63
2018-04-27T03:33:00.224Z,13.07
2018-04-27T03:35:27.814Z,11.27
2018-04-27T03:37:55.780Z,14.43
2018-04-27T03:40:23.452Z,13.50
2018-04-27T03:42:51.128Z,15.00
2018-04-27T03:45:19.178Z,12.63
2018-04-27T03:47:46.748Z,19.07
2018-04-27T03:50:14.554Z,16.60
2018-04-27T03:52:42.308Z,17.23
2018-04-27T03:55:10.049Z,14.97
2018-04-27T03:57:38.686Z,16.97
2018-04-27T04:00:17.966Z,17.10
2018-04-27T04:02:57.594Z,17.13
2018-04-27T04:05:31.040Z,21.60
2018-04-27T04:07:58.652Z,13.30
2018-04-27T04:10:27.159Z,17.47
2018-04-27T04:12:55.544Z,19.97
2018-04-27T04:15:23.296Z,14.60
2018-04-27T04:17:51.819Z,13.43
2018-04-27T04:20:19.363Z,18.70
2018-04-27T04:22:47.272Z,18.43
2018-04-27T04:25:14.934Z,18.43
2018-04-27T04:27:42.508Z,16.00
2018-04-27T04:30:10.162Z,21.73
2018-04-27T04:32:38.507Z,17.13
2018-04-27T04:35:06.497Z,16.80
2018-04-27T04:37:34.349Z,21.40
2018-04-27T04:40:01.929Z,20.50
2018-04-27T04:42:30.267Z,22.80
2018-04-27T04:44:58.401Z,17.40
2018-04-27T04:47:26.848Z,17.33
2018-04-27T04:49:54.793Z,20.87
2018-04-27T04:52:22.669Z,24.53
2018-04-27T04:54:50.264Z,23.67
2018-04-27T04:57:18.584Z,19.43
2018-04-27T04:59:46.284Z,31.77
2018-04-27T05:02:13.976Z,26.50
2018-04-27T05:04:41.523Z,28.23
2018-04-27T05:07:09.158Z,32.97
2018-04-27T05:09:36.816Z,25.93
2018-04-27T05:12:04.480Z,34.83
2018-04-27T05:14:32.173Z,27.57
2018-04-27T05:17:00.563Z,30.57
2018-04-27T05:19:28.156Z,29.73
2018-04-27T05:21:56.180Z,25.73
2018-04-27T05:24:24.672Z,26.37
2018-04-27T05:26:52.493Z,22.03
2018-04-27T05:29:20.353Z,20.73
2018-04-27T05:31:47.906Z,20.30
2018-04-27T05:34:15.913Z,16.93
2018-04-27T05:36:44.813Z,13.90
2018-04-27T05:39:12.635Z,17.10
2018-04-27T05:41:41.172Z,12.43
2018-04-27T05:44:08.771Z,12.30
2018-04-27T05:46:36.460Z,17.17
2018-04-27T05:49:05.153Z,14.57
2018-04-27T05:51:32.849Z,16.30
2018-04-27T05:54:00.661Z,14.60
2018-04-27T05:56:28.208Z,16.10
2018-04-27T05:58:56.412Z,15.50
2018-04-27T06:01:24.716Z,12.93
2018-04-27T06:04:04.208Z,50.50
2018-04-27T06:06:31.892Z,11.50
2018-04-27T06:09:00.365Z,23.60
2018-04-27T06:11:28.784Z,17.00
2018-04-27T06:13:56.491Z,16.47
2018-04-27T06:16:24.098Z,19.43
2018-04-27T06:18:51.800Z,16.67
2018-04-27T06:21:19.571Z,16.00
2018-04-27T06:23:47.936Z,20.17
2018-04-27T06:26:15.937Z,18.90
2018-04-27T06:28:48.327Z,18.67
2018-04-27T06:31:16.037Z,16.27
2018-04-27T06:33:43.696Z,12.50
2018-04-27T06:36:11.358Z,10.60
2018-04-27T06:38:39.258Z,9.70
2018-04-27T06:41:07.904Z,8.87
2018-04-27T06:43:35.570Z,13.10
2018-04-27T06:46:03.435Z,9.73
2018-04-27T06:48:31.889Z,9.67
2018-04-27T06:50:59.468Z,10.70
2018-04-27T06:53:27.043Z,10.50
2018-04-27T06:55:54.584Z,9.80
2018-04-27T06:58:22.291Z,9.63
2018-04-27T07:00:50.096Z,8.77
2018-04-27T07:03:17.879Z,5.40
2018-04-27T07:05:45.426Z,8.47
2018-04-27T07:08:13.208Z,6.83
2018-04-27T07:10:40.774Z,8.90
2018-04-27T07:13:08.517Z,7.87
2018-04-27T07:15:36.224Z,6.47
2018-04-27T07:18:04.852Z,6.53
2018-04-27T07:20:32.721Z,6.13
2018-04-27T07:23:00.437Z,5.30
2018-04-27T07:25:28.637Z,6.77
2018-04-27T07:27:56.197Z,4.63
2018-04-27T07:30:23.986Z,4.43
2018-04-27T07:32:51.681Z,3.83
2018-04-27T07:35:20.081Z,6.10
2018-04-27T07:37:47.789Z,3.47
2018-04-27T07:40:15.621Z,4.60
2018-04-27T07:42:43.208Z,3.87
2018-04-27T07:45:10.827Z,5.13
2018-04-27T07:47:38.579Z,4.20
2018-04-27T07:50:06.298Z,3.43
2018-04-27T07:52:34.162Z,4.43
2018-04-27T07:55:01.878Z,3.57
2018-04-27T07:57:29.775Z,3.40
2018-04-27T07:59:57.356Z,4.70
2018-04-27T08:02:25.095Z,2.53
2018-04-27T08:04:53.152Z,4.07
2018-04-27T08:07:21.014Z,3.60
2018-04-27T08:09:48.824Z,3.00
2018-04-27T08:12:16.549Z,4.77
2018-04-27T08:14:44.332Z,4.77
2018-04-27T08:17:12.020Z,2.60
2018-04-27T08:19:40.340Z,2.93
2018-04-27T08:22:08.148Z,2.53
2018-04-27T08:24:36.043Z,3.07
2018-04-27T08:27:04.440Z,3.57
2018-04-27T08:29:32.147Z,3.80
2018-04-27T08:31:59.782Z,3.77
2018-04-27T08:34:27.647Z,2.47
2018-04-27T08:36:55.375Z,3.63
2018-04-27T08:39:22.919Z,3.30
2018-04-27T08:41:50.623Z,3.10
2018-04-27T08:44:18.540Z,2.83
2018-04-27T08:46:46.250Z,1.67
2018-04-27T08:49:13.795Z,3.93
2018-04-27T08:51:41.373Z,7.00
2018-04-27T08:54:10.265Z,2.13
2018-04-27T08:56:37.840Z,3.47
2018-04-27T08:59:05.609Z,4.43
2018-04-27T09:01:33.160Z,2.80
2018-04-27T09:04:00.977Z,2.00
2018-04-27T09:06:29.078Z,2.90
2018-04-27T09:08:56.752Z,2.37
2018-04-27T09:11:24.413Z,2.80
2018-04-27T09:13:52.096Z,2.97
2018-04-27T09:16:19.702Z,12.10
2018-04-27T09:18:47.396Z,4.83
2018-04-27T09:21:15.353Z,4.93
2018-04-27T09:23:43.071Z,3.73
2018-04-27T09:26:10.673Z,3.00
2018-04-27T09:28:38.500Z,3.90
2018-04-27T09:31:06.826Z,7.47
2018-04-27T09:33:34.374Z,2.87
2018-04-27T09:36:02.259Z,2.40
2018-04-27T09:38:30.138Z,2.83
2018-04-27T09:40:58.039Z,4.80
2018-04-27T09:43:25.638Z,3.20
2018-04-27T09:45:53.329Z,1.93
2018-04-27T09:48:21.177Z,2.30
2018-04-27T09:50:49.055Z,5.93
2018-04-27T09:53:17.400Z,3.00
2018-04-27T09:55:45.200Z,2.43
2018-04-27T09:58:13.059Z,2.23
2018-04-27T10:00:41.794Z,2.97
2018-04-27T10:03:09.841Z,3.03
2018-04-27T10:05:38.435Z,3.50
2018-04-27T10:08:06.293Z,1.87
2018-04-27T10:10:34.052Z,4.40
2018-04-27T10:13:02.472Z,3.20
2018-04-27T10:15:30.021Z,1.77
2018-04-27T10:17:57.805Z,3.37
2018-04-27T10:20:25.724Z,2.87
2018-04-27T10:22:53.240Z,3.07
2018-04-27T10:25:20.846Z,3.23
2018-04-27T10:27:48.644Z,2.67
2018-04-27T10:30:16.336Z,2.73
2018-04-27T10:32:43.954Z,3.90
2018-04-27T10:35:11.649Z,3.90
2018-04-27T10:37:39.485Z,1.50
2018-04-27T10:40:07.129Z,2.57
2018-04-27T10:42:34.863Z,6.43
2018-04-27T10:45:03.357Z,4.20
2018-04-27T10:47:31.700Z,2.77
2018-04-27T10:49:59.456Z,2.13
2018-04-27T10:52:26.999Z,3.47
2018-04-27T10:54:54.813Z,2.27
2018-04-27T10:57:22.638Z,2.40
2018-04-27T10:59:50.189Z,3.00
2018-04-27T11:02:18.141Z,3.67
2018-04-27T11:04:46.068Z,3.57
2018-04-27T11:07:14.372Z,3.50
2018-04-27T11:09:42.149Z,3.63
2018-04-27T11:12:09.832Z,3.93
2018-04-27T11:14:37.761Z,3.30
2018-04-27T11:17:05.677Z,3.70
2018-04-27T11:19:33.660Z,15.87
2018-04-27T11:22:07.439Z,12.37
2018-04-27T11:24:35.065Z,10.00
2018-04-27T11:27:02.636Z,5.77
2018-04-27T11:29:30.635Z,4.40
2018-04-27T11:31:59.178Z,4.00
2018-04-27T11:34:26.944Z,5.13
2018-04-27T11:36:54.584Z,4.20
2018-04-27T11:39:22.301Z,5.07
2018-04-27T11:41:49.852Z,6.60
2018-04-27T11:44:17.639Z,6.00
2018-04-27T11:46:45.669Z,7.00
2018-04-27T11:49:13.772Z,4.53
2018-04-27T11:51:41.428Z,2.87
2018-04-27T11:54:09.300Z,4.07
2018-04-27T11:56:37.008Z,2.73
2018-04-27T11:59:04.812Z,2.70
2018-04-27T12:01:33.092Z,3.93
2018-04-27T12:04:00.628Z,1.87
2018-04-27T12:06:28.523Z,4.63
2018-04-27T12:08:56.128Z,2.10
2018-04-27T12:11:23.889Z,3.67
2018-04-27T12:13:51.776Z,4.43
2018-04-27T12:16:19.439Z,3.50
2018-04-27T12:18:47.272Z,3.77
2018-04-27T12:21:14.822Z,2.43
2018-04-27T12:23:43.458Z,2.73
2018-04-27T12:26:11.084Z,2.60
2018-04-27T12:28:38.633Z,3.83
2018-04-27T12:31:06.464Z,3.97
2018-04-27T12:33:34.290Z,4.67
2018-04-27T12:36:02.149Z,2.53
2018-04-27T12:38:29.781Z,1.93
2018-04-27T12:40:57.362Z,4.10
2018-04-27T12:43:24.918Z,9.07
2018-04-27T12:45:52.513Z,10.00
2018-04-27T12:48:20.460Z,4.40
2018-04-27T12:50:48.032Z,5.03
2018-04-27T12:53:15.986Z,2.83
2018-04-27T12:55:43.548Z,2.10
2018-04-27T12:58:11.117Z,2.43
2018-04-27T13:00:38.780Z,1.77
2018-04-27T13:03:06.489Z,3.30
2018-04-27T13:05:35.352Z,2.97
2018-04-27T13:08:03.018Z,6.73
2018-04-27T13:10:30.807Z,5.00
2018-04-27T13:12:58.483Z,4.50
2018-04-27T13:15:26.538Z,4.10
2018-04-27T13:17:54.260Z,2.30
2018-04-27T13:20:21.864Z,2.03
2018-04-27T13:22:49.469Z,4.23
2018-04-27T13:25:17.017Z,2.93
2018-04-27T13:27:44.875Z,1.63
2018-04-27T13:30:12.492Z,3.47
2018-04-27T13:32:40.037Z,2.30
2018-04-27T13:35:07.629Z,2.97
2018-04-27T13:37:35.566Z,2.20
2018-04-27T13:40:03.110Z,2.47
2018-04-27T13:42:31.145Z,2.20
2018-04-27T13:44:58.910Z,7.20
2018-04-27T13:47:26.552Z,3.07
2018-04-27T13:49:54.707Z,3.40
2018-04-27T13:52:23.289Z,2.70
2018-04-27T13:54:50.837Z,2.90
2018-04-27T13:57:19.182Z,2.23
2018-04-27T13:59:46.956Z,3.00
2018-04-27T14:02:14.808Z,4.63
2018-04-27T14:04:42.654Z,2.73
2018-04-27T14:07:10.292Z,3.27
2018-04-27T14:09:37.845Z,3.23
2018-04-27T14:12:05.616Z,5.03
2018-04-27T14:14:33.537Z,8.07
2018-04-27T14:17:01.144Z,3.10
2018-04-27T14:19:29.668Z,4.00
2018-04-27T14:21:57.482Z,3.13
2018-04-27T14:24:25.236Z,3.93
2018-04-27T14:26:53.890Z,3.83
2018-04-27T14:29:21.773Z,2.13
2018-04-27T14:31:50.089Z,3.57
2018-04-27T14:34:17.805Z,3.60
2018-04-27T14:36:45.696Z,2.40
2018-04-27T14:39:13.816Z,1.77
2018-04-27T14:41:41.380Z,2.53
2018-04-27T14:44:09.413Z,3.67
2018-04-27T14:46:37.064Z,2.73
2018-04-27T14:49:04.711Z,6.97
2018-04-27T14:51:32.538Z,2.87
2018-04-27T14:54:00.466Z,7.77
2018-04-27T14:56:28.035Z,5.53
2018-04-27T14:58:55.804Z,4.03
2018-04-27T15:01:23.407Z,4.30
2018-04-27T15:03:50.975Z,6.40
2018-04-27T15:06:18.749Z,4.13
2018-04-27T15:08:46.764Z,13.00
2018-04-27T15:11:14.410Z,6.20
2018-04-27T15:13:42.144Z,3.93
2018-04-27T15:16:09.958Z,4.83
2018-04-27T15:18:38.052Z,10.57
2018-04-27T15:21:05.876Z,3.23
2018-04-27T15:23:33.759Z,2.37
2018-04-27T15:26:01.480Z,6.80
2018-04-27T15:28:29.141Z,11.77
2018-04-27T15:30:57.155Z,21.53
2018-04-27T15:33:24.723Z,5.53
2018-04-27T15:35:52.552Z,5.87
2018-04-27T15:38:20.344Z,4.50
2018-04-27T15:40:48.231Z,5.77
2018-04-27T15:43:16.686Z,11.10
2018-04-27T15:45:44.528Z,6.60
2018-04-27T15:48:12.190Z,6.73
2018-04-27T15:50:40.212Z,3.73
2018-04-27T15:53:08.097Z,6.70
2018-04-27T15:55:35.961Z,5.07
2018-04-27T15:58:03.873Z,3.20
2018-04-27T16:00:31.561Z,5.40
2018-04-27T16:02:59.588Z,5.53
2018-04-27T16:05:27.285Z,4.17
2018-04-27T16:07:54.913Z,3.80
2018-04-27T16:10:22.658Z,6.63
2018-04-27T16:12:50.525Z,5.00
2018-04-27T16:15:18.104Z,4.40
2018-04-27T16:17:45.804Z,5.30
2018-04-27T16:20:14.720Z,5.33
2018-04-27T16:22:42.931Z,5.23
2018-04-27T16:25:10.889Z,2.93
2018-04-27T16:27:38.733Z,3.77
2018-04-27T16:30:06.318Z,4.03
2018-04-27T16:32:34.041Z,5.47
2018-04-27T16:35:01.767Z,5.33
2018-04-27T16:37:29.356Z,4.97
2018-04-27T16:39:57.984Z,7.23
2018-04-27T16:42:25.604Z,6.03
2018-04-27T16:44:53.149Z,4.20
2018-04-27T16:47:21.787Z,5.23
2018-04-27T16:49:49.401Z,6.27
2018-04-27T16:52:17.372Z,4.40
2018-04-27T16:54:46.111Z,6.00
2018-04-27T16:57:13.930Z,6.47
2018-04-27T16:59:41.486Z,12.97
2018-04-27T17:02:09.389Z,11.87
2018-04-27T17:04:37.140Z,22.73
2018-04-27T17:07:04.738Z,42.07
2018-04-27T17:09:32.896Z,20.70
2018-04-27T17:12:02.057Z,20.33
2018-04-27T17:14:29.879Z,17.33
2018-04-27T17:16:57.503Z,18.93
2018-04-27T17:19:25.172Z,15.87
2018-04-27T17:21:52.765Z,16.03
2018-04-27T17:24:21.476Z,14.23
2018-04-27T17:26:50.109Z,16.73
2018-04-27T17:29:17.745Z,10.23
2018-04-27T17:31:45.326Z,11.17
2018-04-27T17:34:13.004Z,8.70
2018-04-27T17:36:41.003Z,9.77
2018-04-27T17:39:08.944Z,10.87
2018-04-27T17:41:37.086Z,12.13
2018-04-27T17:44:04.662Z,14.70
2018-04-27T17:46:34.052Z,14.10
2018-04-27T17:49:02.114Z,14.43
2018-04-27T17:51:30.029Z,11.30
2018-04-27T17:53:58.400Z,14.33
2018-04-27T17:56:28.245Z,17.13
2018-04-27T17:58:56.244Z,21.10
2018-04-27T18:01:23.939Z,26.17
2018-04-27T18:03:52.378Z,27.87
2018-04-27T18:06:20.019Z,40.97
2018-04-27T18:08:47.802Z,31.40
2018-04-27T18:11:15.487Z,23.53
2018-04-27T18:13:43.457Z,22.07
2018-04-27T18:16:12.874Z,41.97
2018-04-27T18:18:40.804Z,42.83
2018-04-27T18:21:08.567Z,44.87
2018-04-27T18:23:36.142Z,39.87
2018-04-27T18:26:04.112Z,48.40
2018-04-27T18:28:32.759Z,38.27
2018-04-27T18:31:00.556Z,37.10
2018-04-27T18:33:28.822Z,21.23
2018-04-27T18:35:56.463Z,23.13
2018-04-27T18:38:24.404Z,28.43
2018-04-27T18:40:53.118Z,32.33
2018-04-27T18:43:20.737Z,27.30
2018-04-27T18:45:48.310Z,24.20
2018-04-27T18:48:16.940Z,23.23
2018-04-27T18:50:45.125Z,23.97
2018-04-27T18:53:12.699Z,25.77
2018-04-27T18:55:40.673Z,24.17
2018-04-27T18:58:08.803Z,26.83
2018-04-27T19:00:36.616Z,22.07
2018-04-27T19:03:05.078Z,27.00
2018-04-27T19:05:33.936Z,32.30
2018-04-27T19:08:01.709Z,27.10
2018-04-27T19:10:31.424Z,28.07
2018-04-27T19:12:59.037Z,27.60
2018-04-27T19:15:26.724Z,22.17
2018-04-27T19:18:04.528Z,20.43
2018-04-27T19:20:34.065Z,21.80
2018-04-27T19:23:03.585Z,26.63
2018-04-27T19:25:33.980Z,26.90
2018-04-27T19:28:01.597Z,28.53
2018-04-27T19:30:29.386Z,34.73
2018-04-27T19:32:57.172Z,26.07
2018-04-27T19:35:24.933Z,34.93
2018-04-27T19:37:52.516Z,37.10
2018-04-27T19:40:21.060Z,40.07
2018-04-27T19:42:48.766Z,34.83
2018-04-27T19:45:16.580Z,33.87
2018-04-27T19:47:44.208Z,36.33
2018-04-27T19:50:11.818Z,42.43
2018-04-27T19:52:39.384Z,43.73
2018-04-27T19:55:07.580Z,87.83
2018-04-27T19:57:35.499Z,84.27
2018-04-27T20:00:03.170Z,101.47
2018-04-27T20:02:31.254Z,25.77
2018-04-27T20:04:58.825Z,25.10
2018-04-27T20:07:26.645Z,25.87
2018-04-27T20:09:54.577Z,33.13
2018-04-27T20:12:22.557Z,37.30
2018-04-27T20:14:50.411Z,33.43
2018-04-27T20:17:30.528Z,27.10
2018-04-27T20:19:58.165Z,40.53
2018-04-27T20:22:25.971Z,32.30
2018-04-27T20:24:57.912Z,28.53
2018-04-27T20:30:23.369Z,26.97
2018-04-27T20:32:52.635Z,22.30
2018-04-27T20:35:20.702Z,20.37
2018-04-27T20:37:52.294Z,23.33
2018-04-27T20:40:19.904Z,29.63
2018-04-27T20:42:47.664Z,38.10
2018-04-27T20:45:15.279Z,36.30
2018-04-27T20:47:43.708Z,40.43
2018-04-27T20:50:11.727Z,44.13
2018-04-27T20:52:39.353Z,43.90
2018-04-27T20:55:09.610Z,34.30
2018-04-27T20:57:37.317Z,39.30
2018-04-27T21:00:05.444Z,37.60
2018-04-27T21:02:33.223Z,39.80
2018-04-27T21:05:00.778Z,36.90
2018-04-27T21:07:28.400Z,29.27
2018-04-27T21:09:56.019Z,27.50
2018-04-27T21:12:27.336Z,32.37
2018-04-27T21:14:55.104Z,34.00
2018-04-27T21:17:23.412Z,37.30
2018-04-27T21:19:51.591Z,27.80
2018-04-27T21:22:19.323Z,37.43
2018-04-27T21:24:46.969Z,35.50
2018-04-27T21:27:14.808Z,43.17
2018-04-27T21:29:42.391Z,36.93
2018-04-27T21:32:09.984Z,31.30
2018-04-27T21:34:38.441Z,34.20
2018-04-27T21:37:06.968Z,37.53
2018-04-27T21:39:34.925Z,36.27
2018-04-27T21:42:12.681Z,37.33
2018-04-27T21:44:44.944Z,36.30
2018-04-27T21:47:20.743Z,33.43
2018-04-27T21:49:49.814Z,34.33
2018-04-27T21:52:25.247Z,28.30
2018-04-27T21:54:52.954Z,26.13
2018-04-27T21:57:55.112Z,28.77
2018-04-27T22:00:22.709Z,27.80
2018-04-27T22:02:56.343Z,26.50
2018-04-27T22:08:44.910Z,26.37
2018-04-27T22:11:14.248Z,31.50
2018-04-27T22:13:41.780Z,31.40
2018-04-27T22:16:16.317Z,27.10
2018-04-27T22:18:43.924Z,26.07
2018-04-27T22:21:12.355Z,30.67
2018-04-27T22:23:40.013Z,28.50
2018-04-27T22:26:22.628Z,27.27
2018-04-27T22:28:51.056Z,26.07
2018-04-27T22:31:26.226Z,27.27
2018-04-27T22:33:58.644Z,36.57
2018-04-27T22:36:42.030Z,28.67
2018-04-27T22:39:18.165Z,25.27
2018-04-27T22:41:55.292Z,25.90
2018-04-27T22:44:22.880Z,29.33
2018-04-27T22:46:55.284Z,26.47
2018-04-27T22:49:23.823Z,22.67
2018-04-27T22:51:51.400Z,25.73
2018-04-27T22:57:35.524Z,24.20
2018-04-27T23:00:03.895Z,24.47
2018-04-27T23:02:32.400Z,21.73
2018-04-27T23:05:00.107Z,21.17
2018-04-27T23:07:32.103Z,23.13
2018-04-27T23:09:59.708Z,25.37
2018-04-27T23:12:30.200Z,26.37
2018-04-27T23:14:57.924Z,28.70
2018-04-27T23:17:26.400Z,29.17
2018-04-27T23:19:55.763Z,31.83
2018-04-27T23:22:39.799Z,27.90
2018-04-27T23:25:12.932Z,29.73
2018-04-27T23:27:41.281Z,27.57
2018-04-27T23:30:08.980Z,30.67
2018-04-27T23:32:38.216Z,29.57
2018-04-27T23:35:05.846Z,27.97
2018-04-27T23:37:34.245Z,21.50
2018-04-27T23:40:01.843Z,23.03
2018-04-27T23:42:29.452Z,23.13
2018-04-27T23:44:56.993Z,22.70
2018-04-27T23:47:24.748Z,19.10
2018-04-27T23:49:53.430Z,16.87
2018-04-27T23:52:21.762Z,16.83
2018-04-27T23:54:49.308Z,18.47
2018-04-27T23:57:20.696Z,15.40
2018-04-27T23:59:50.866Z,14.27
